createdAt,value
2024-02-29T00:01:24.214Z,28.55
2024-02-29T00:02:57.411Z,27.13
2024-02-29T00:04:32.969Z,25.65
2024-02-29T00:06:07.059Z,25.48
2024-02-29T00:07:41.349Z,26.90
2024-02-29T00:09:14.562Z,26.67
2024-02-29T00:10:48.778Z,26.90
2024-02-29T00:12:23.860Z,23.60
2024-02-29T00:13:57.999Z,30.42
2024-02-29T00:15:31.016Z,26.63
2024-02-29T00:17:07.128Z,27.38
2024-02-29T00:18:40.666Z,21.75
2024-02-29T00:20:14.687Z,24.75
2024-02-29T00:21:47.942Z,27.63
2024-02-29T00:23:22.230Z,25.38
2024-02-29T00:24:55.720Z,29.23
2024-02-29T00:26:29.796Z,21.50
2024-02-29T00:28:05.738Z,26.40
2024-02-29T00:29:39.587Z,24.90
2024-02-29T00:31:14.068Z,29.75
2024-02-29T00:32:48.694Z,27.67
2024-02-29T00:34:22.281Z,34.83
2024-02-29T00:36:08.644Z,31.15
2024-02-29T00:37:43.394Z,26.20
2024-02-29T00:39:18.113Z,28.23
2024-02-29T00:40:51.183Z,21.80
2024-02-29T00:42:25.318Z,35.53
2024-02-29T00:44:00.090Z,25.17
2024-02-29T00:45:34.269Z,26.00
2024-02-29T00:47:07.719Z,26.90
2024-02-29T00:48:41.755Z,21.40
2024-02-29T00:50:16.757Z,25.58
2024-02-29T00:51:50.868Z,22.73
2024-02-29T00:53:23.911Z,28.90
2024-02-29T00:54:58.088Z,25.77
2024-02-29T00:56:31.712Z,24.10
2024-02-29T00:58:06.126Z,26.23
2024-02-29T00:59:41.602Z,26.08
2024-02-29T01:01:15.765Z,25.05
2024-02-29T01:02:50.461Z,31.55
2024-02-29T01:04:23.508Z,31.98
2024-02-29T01:05:57.632Z,33.10
2024-02-29T01:07:31.844Z,26.38
2024-02-29T01:09:05.896Z,27.77
2024-02-29T01:10:40.304Z,31.10
2024-02-29T01:12:13.385Z,27.10
2024-02-29T01:13:47.459Z,28.85
2024-02-29T01:15:21.869Z,26.15
2024-02-29T01:16:57.611Z,23.55
2024-02-29T01:18:30.620Z,27.95
2024-02-29T01:20:07.250Z,27.42
2024-02-29T01:21:42.333Z,27.80
2024-02-29T01:23:16.369Z,27.63
2024-02-29T01:24:49.436Z,25.90
2024-02-29T01:26:23.615Z,28.33
2024-02-29T01:27:57.125Z,24.42
2024-02-29T01:29:31.265Z,27.88
2024-02-29T01:31:06.915Z,26.63
2024-02-29T01:32:41.033Z,22.50
2024-02-29T01:34:14.218Z,24.55
2024-02-29T01:35:48.290Z,23.25
2024-02-29T01:37:21.325Z,28.92
2024-02-29T01:38:55.878Z,21.27
2024-02-29T01:40:29.416Z,27.00
2024-02-29T01:42:04.002Z,33.63
2024-02-29T01:43:37.070Z,30.70
2024-02-29T01:45:12.097Z,30.70
2024-02-29T01:46:46.563Z,36.40
2024-02-29T01:48:20.818Z,26.73
2024-02-29T01:49:58.198Z,32.15
2024-02-29T01:51:34.163Z,30.75
2024-02-29T01:53:08.323Z,29.02
2024-02-29T01:54:41.441Z,25.08
2024-02-29T01:56:15.880Z,32.67
2024-02-29T01:57:49.659Z,27.20
2024-02-29T01:59:24.441Z,27.17
2024-02-29T02:00:57.568Z,29.05
2024-02-29T02:02:33.052Z,28.17
2024-02-29T02:04:07.565Z,28.17
2024-02-29T02:05:41.688Z,25.08
2024-02-29T02:07:17.549Z,33.47
2024-02-29T02:08:50.664Z,30.77
2024-02-29T02:10:25.453Z,29.33
2024-02-29T02:11:58.414Z,28.55
2024-02-29T02:13:32.641Z,30.45
2024-02-29T02:15:06.983Z,28.48
2024-02-29T02:16:41.577Z,29.48
2024-02-29T02:18:17.133Z,35.85
2024-02-29T02:19:53.271Z,41.65
2024-02-29T02:21:27.751Z,27.63
2024-02-29T02:23:02.226Z,31.27
2024-02-29T02:24:36.037Z,29.05
2024-02-29T02:26:10.715Z,38.42
2024-02-29T02:27:45.287Z,34.10
2024-02-29T02:29:18.296Z,30.00
2024-02-29T02:30:52.671Z,26.55
2024-02-29T02:32:27.015Z,30.67
2024-02-29T02:34:00.854Z,35.28
2024-02-29T02:35:35.438Z,32.83
2024-02-29T02:37:10.014Z,26.85
2024-02-29T02:38:44.147Z,34.97
2024-02-29T02:40:18.525Z,24.50
2024-02-29T02:41:52.691Z,27.27
2024-02-29T02:43:25.644Z,30.10
2024-02-29T02:44:59.796Z,29.98
2024-02-29T02:46:33.363Z,30.35
2024-02-29T02:48:08.289Z,32.92
2024-02-29T02:49:42.892Z,26.70
2024-02-29T02:51:16.837Z,28.50
2024-02-29T02:52:51.869Z,27.70
2024-02-29T02:54:25.856Z,27.80
2024-02-29T02:55:58.852Z,28.13
2024-02-29T02:57:32.983Z,29.02
2024-02-29T02:59:07.654Z,29.52
2024-02-29T03:00:40.704Z,32.85
2024-02-29T03:02:14.928Z,32.65
2024-02-29T03:03:48.228Z,29.42
2024-02-29T03:05:23.792Z,28.08
2024-02-29T03:06:56.870Z,28.63
2024-02-29T03:08:32.681Z,30.02
2024-02-29T03:10:07.089Z,28.85
2024-02-29T03:11:41.853Z,25.73
2024-02-29T03:13:14.907Z,31.92
2024-02-29T03:14:49.058Z,27.88
2024-02-29T03:16:23.486Z,27.73
2024-02-29T03:17:58.084Z,30.98
2024-02-29T03:19:31.165Z,28.40
2024-02-29T03:21:06.312Z,27.85
2024-02-29T03:22:39.458Z,26.52
2024-02-29T03:24:15.247Z,30.73
2024-02-29T03:25:48.507Z,30.20
2024-02-29T03:27:22.832Z,28.90
2024-02-29T03:28:55.842Z,29.63
2024-02-29T03:30:30.630Z,29.52
2024-02-29T03:32:03.822Z,23.83
2024-02-29T03:33:38.035Z,27.08
2024-02-29T03:35:11.308Z,25.98
2024-02-29T03:36:45.802Z,33.67
2024-02-29T03:38:19.411Z,26.02
2024-02-29T03:39:55.973Z,27.45
2024-02-29T03:41:29.109Z,27.20
2024-02-29T03:43:03.720Z,26.77
2024-02-29T03:44:37.795Z,27.75
2024-02-29T03:46:11.118Z,24.58
2024-02-29T03:47:45.208Z,28.58
2024-02-29T03:49:18.810Z,24.98
2024-02-29T03:50:54.216Z,29.65
2024-02-29T03:52:27.346Z,29.80
2024-02-29T03:54:01.338Z,28.15
2024-02-29T03:55:36.326Z,26.85
2024-02-29T03:57:10.329Z,26.88
2024-02-29T03:58:43.100Z,26.13
2024-02-29T04:00:17.679Z,25.92
2024-02-29T04:01:51.920Z,29.70
2024-02-29T04:03:25.779Z,24.45
2024-02-29T04:04:59.313Z,30.45
2024-02-29T04:06:33.248Z,29.33
2024-02-29T04:08:12.789Z,27.40
2024-02-29T04:09:46.866Z,21.60
2024-02-29T04:11:21.102Z,27.45
2024-02-29T04:12:55.190Z,25.05
2024-02-29T04:14:28.563Z,26.50
2024-02-29T04:16:03.843Z,26.23
2024-02-29T04:17:37.805Z,26.30
2024-02-29T04:19:10.806Z,25.35
2024-02-29T04:20:45.530Z,30.20
2024-02-29T04:22:18.607Z,31.13
2024-02-29T04:23:52.511Z,29.30
2024-02-29T04:25:26.919Z,29.60
2024-02-29T04:27:01.181Z,25.80
2024-02-29T04:28:35.185Z,23.92
2024-02-29T04:30:10.116Z,28.60
2024-02-29T04:31:48.630Z,27.08
2024-02-29T04:33:21.524Z,23.52
2024-02-29T04:34:56.106Z,25.42
2024-02-29T04:36:30.595Z,26.60
2024-02-29T04:38:04.218Z,25.60
2024-02-29T04:39:38.478Z,28.30
2024-02-29T04:41:11.569Z,31.17
2024-02-29T04:42:46.807Z,27.25
2024-02-29T04:44:20.140Z,27.10
2024-02-29T04:45:56.149Z,23.23
2024-02-29T04:47:29.389Z,26.92
2024-02-29T04:49:03.461Z,34.58
2024-02-29T04:50:36.733Z,32.00
2024-02-29T04:52:10.753Z,33.70
2024-02-29T04:53:43.722Z,30.17
2024-02-29T04:55:17.680Z,33.47
2024-02-29T04:56:51.131Z,38.83
2024-02-29T04:58:26.422Z,24.70
2024-02-29T04:59:59.404Z,25.40
2024-02-29T05:01:33.813Z,24.92
2024-02-29T05:03:07.501Z,29.33
2024-02-29T05:04:41.350Z,28.33
2024-02-29T05:06:17.468Z,22.05
2024-02-29T05:07:51.353Z,24.23
2024-02-29T05:09:25.930Z,23.25
2024-02-29T05:10:58.902Z,22.48
2024-02-29T05:12:32.973Z,23.77
2024-02-29T05:14:07.298Z,25.10
2024-02-29T05:15:41.693Z,23.92
2024-02-29T05:17:14.544Z,25.60
2024-02-29T05:18:49.777Z,30.77
2024-02-29T05:20:22.656Z,25.02
2024-02-29T05:21:57.305Z,24.85
2024-02-29T05:23:30.223Z,25.67
2024-02-29T05:25:04.575Z,30.23
2024-02-29T05:26:37.575Z,24.58
2024-02-29T05:28:11.944Z,21.05
2024-02-29T05:29:46.128Z,29.52
2024-02-29T05:31:20.139Z,23.65
2024-02-29T05:32:53.202Z,26.77
2024-02-29T05:34:27.716Z,31.33
2024-02-29T05:36:00.979Z,29.45
2024-02-29T05:37:36.810Z,28.15
2024-02-29T05:39:12.313Z,23.98
2024-02-29T05:40:46.047Z,25.38
2024-02-29T05:42:20.077Z,22.33
2024-02-29T05:43:53.005Z,24.40
2024-02-29T05:45:28.268Z,28.00
2024-02-29T05:47:01.771Z,24.98
2024-02-29T05:48:38.704Z,25.10
2024-02-29T05:50:11.838Z,25.67
2024-02-29T05:51:45.945Z,23.55
2024-02-29T05:53:19.651Z,25.52
2024-02-29T05:54:54.240Z,21.33
2024-02-29T05:56:28.423Z,21.58
2024-02-29T05:58:01.706Z,17.38
2024-02-29T05:59:36.188Z,22.88
2024-02-29T06:01:11.458Z,23.90
2024-02-29T06:02:46.609Z,25.52
2024-02-29T06:04:20.698Z,25.52
2024-02-29T06:05:55.293Z,26.48
2024-02-29T06:07:28.934Z,26.10
2024-02-29T06:09:03.432Z,23.73
2024-02-29T06:10:36.496Z,24.30
2024-02-29T06:12:11.684Z,23.90
2024-02-29T06:13:44.824Z,26.58
2024-02-29T06:15:20.296Z,23.60
2024-02-29T06:16:54.803Z,28.27
2024-02-29T06:18:29.313Z,24.77
2024-02-29T06:20:02.676Z,25.02
2024-02-29T06:21:36.696Z,25.70
2024-02-29T06:23:09.816Z,24.08
2024-02-29T06:24:44.277Z,23.30
2024-02-29T06:26:17.426Z,22.40
2024-02-29T06:27:51.967Z,28.08
2024-02-29T06:29:25.350Z,27.38
2024-02-29T06:30:59.952Z,24.30
2024-02-29T06:32:34.912Z,34.10
2024-02-29T06:34:09.400Z,29.73
2024-02-29T06:35:43.483Z,25.67
2024-02-29T06:37:17.556Z,25.00
2024-02-29T06:38:52.303Z,25.98
2024-02-29T06:40:25.409Z,24.58
2024-02-29T06:41:59.627Z,29.17
2024-02-29T06:43:33.484Z,27.88
2024-02-29T06:45:08.331Z,33.00
2024-02-29T06:46:41.446Z,27.10
2024-02-29T06:48:18.230Z,25.50
2024-02-29T06:49:51.911Z,29.08
2024-02-29T06:51:25.995Z,25.58
2024-02-29T06:52:58.872Z,28.77
2024-02-29T06:54:33.471Z,29.83
2024-02-29T06:56:07.132Z,24.80
2024-02-29T06:57:41.204Z,29.38
2024-02-29T06:59:15.311Z,24.90
2024-02-29T07:00:49.309Z,26.02
2024-02-29T07:02:23.802Z,25.95
2024-02-29T07:03:59.092Z,28.02
2024-02-29T07:05:35.644Z,28.27
2024-02-29T07:07:11.123Z,25.25
2024-02-29T07:08:45.024Z,26.48
2024-02-29T07:10:21.087Z,23.77
2024-02-29T07:11:54.330Z,30.92
2024-02-29T07:13:28.696Z,25.90
2024-02-29T07:15:02.567Z,28.33
2024-02-29T07:16:37.362Z,27.33
2024-02-29T07:18:12.390Z,20.30
2024-02-29T07:19:47.945Z,23.65
2024-02-29T07:21:21.631Z,25.95
2024-02-29T07:22:55.851Z,24.80
2024-02-29T07:24:29.097Z,31.67
2024-02-29T07:26:04.916Z,24.63
2024-02-29T07:27:39.417Z,28.15
2024-02-29T07:29:14.038Z,25.98
2024-02-29T07:30:48.538Z,22.77
2024-02-29T07:32:22.106Z,24.77
2024-02-29T07:33:57.062Z,25.40
2024-02-29T07:35:32.457Z,24.33
2024-02-29T07:37:07.009Z,25.55
2024-02-29T07:38:40.153Z,23.55
2024-02-29T07:40:14.917Z,28.90
2024-02-29T07:41:48.680Z,25.92
2024-02-29T07:43:23.548Z,23.17
2024-02-29T07:44:56.983Z,30.65
2024-02-29T07:46:31.470Z,22.27
2024-02-29T07:48:05.057Z,25.88
2024-02-29T07:49:39.238Z,26.35
2024-02-29T07:51:14.572Z,26.95
2024-02-29T07:52:48.971Z,26.83
2024-02-29T07:54:23.123Z,28.58
2024-02-29T07:55:56.554Z,21.27
2024-02-29T07:57:30.640Z,24.45
2024-02-29T07:59:04.323Z,20.95
2024-02-29T08:00:39.201Z,26.52
2024-02-29T08:02:12.551Z,24.48
2024-02-29T08:03:46.579Z,25.50
2024-02-29T08:05:21.420Z,27.52
2024-02-29T08:06:55.908Z,30.05
2024-02-29T08:08:30.189Z,25.67
2024-02-29T08:10:03.723Z,26.35
2024-02-29T08:11:38.855Z,26.08
2024-02-29T08:13:12.272Z,27.65
2024-02-29T08:14:48.087Z,23.83
2024-02-29T08:16:21.689Z,28.10
2024-02-29T08:17:56.908Z,24.80
2024-02-29T08:19:30.195Z,24.35
2024-02-29T08:21:05.487Z,29.77
2024-02-29T08:22:40.611Z,28.70
2024-02-29T08:24:15.272Z,25.38
2024-02-29T08:25:48.314Z,24.67
2024-02-29T08:27:22.831Z,27.13
2024-02-29T08:28:57.054Z,20.98
2024-02-29T08:30:31.730Z,24.83
2024-02-29T08:32:04.922Z,23.73
2024-02-29T08:33:39.824Z,22.88
2024-02-29T08:35:12.999Z,28.83
2024-02-29T08:36:47.366Z,26.42
2024-02-29T08:38:21.925Z,26.80
2024-02-29T08:39:55.971Z,25.70
2024-02-29T08:41:29.275Z,29.27
2024-02-29T08:43:03.861Z,24.92
2024-02-29T08:44:37.519Z,24.23
2024-02-29T08:46:12.174Z,25.50
2024-02-29T08:47:45.160Z,25.70
2024-02-29T08:49:19.595Z,25.20
2024-02-29T08:50:52.627Z,25.10
2024-02-29T08:52:27.411Z,28.48
2024-02-29T08:54:01.691Z,24.83
2024-02-29T08:55:36.605Z,30.55
2024-02-29T08:57:09.813Z,29.50
2024-02-29T08:58:44.338Z,23.25
2024-02-29T09:00:19.111Z,27.88
2024-02-29T09:01:52.586Z,27.73
2024-02-29T09:03:26.833Z,28.55
2024-02-29T09:04:59.953Z,27.38
2024-02-29T09:06:41.146Z,30.10
2024-02-29T09:08:18.615Z,24.88
2024-02-29T09:09:54.569Z,29.75
2024-02-29T09:11:30.309Z,30.85
2024-02-29T09:13:15.820Z,24.92
2024-02-29T09:14:59.794Z,29.73
2024-02-29T09:16:32.901Z,25.33
2024-02-29T09:18:07.638Z,29.10
2024-02-29T09:19:40.608Z,24.98
2024-02-29T09:21:15.251Z,30.10
2024-02-29T09:22:50.354Z,28.08
2024-02-29T09:24:24.337Z,28.25
2024-02-29T09:25:58.869Z,30.95
2024-02-29T09:27:33.695Z,24.77
2024-02-29T09:29:07.371Z,26.60
2024-02-29T09:30:41.905Z,24.77
2024-02-29T09:32:15.141Z,28.13
2024-02-29T09:33:49.818Z,26.20
2024-02-29T09:35:22.976Z,20.92
2024-02-29T09:36:56.995Z,22.63
2024-02-29T09:38:30.339Z,21.50
2024-02-29T09:40:05.800Z,21.65
2024-02-29T09:41:59.005Z,26.40
2024-02-29T09:43:36.130Z,24.48
2024-02-29T09:45:13.010Z,27.17
2024-02-29T09:46:49.040Z,24.80
2024-02-29T09:48:22.319Z,22.35
2024-02-29T09:50:02.035Z,22.75
2024-02-29T09:51:41.347Z,21.67
2024-02-29T09:53:19.404Z,25.02
2024-02-29T09:54:53.360Z,24.52
2024-02-29T09:56:30.564Z,24.02
2024-02-29T09:58:06.697Z,23.63
2024-02-29T09:59:43.822Z,27.02
2024-02-29T10:01:17.547Z,23.88
2024-02-29T10:02:55.635Z,21.63
2024-02-29T10:04:29.774Z,22.42
2024-02-29T10:06:05.377Z,26.55
2024-02-29T10:07:47.120Z,27.52
2024-02-29T10:09:22.209Z,23.95
2024-02-29T10:10:56.133Z,24.25
2024-02-29T10:12:30.215Z,24.00
2024-02-29T10:14:04.721Z,22.45
2024-02-29T10:15:38.865Z,24.65
2024-02-29T10:17:12.484Z,25.15
2024-02-29T10:18:46.551Z,21.83
2024-02-29T10:20:21.790Z,26.30
2024-02-29T10:21:55.864Z,24.00
2024-02-29T10:23:30.178Z,24.92
2024-02-29T10:25:04.265Z,22.25
2024-02-29T10:26:37.338Z,21.52
2024-02-29T10:28:16.222Z,21.92
2024-02-29T10:29:51.514Z,24.73
2024-02-29T10:31:28.539Z,22.42
2024-02-29T10:33:01.640Z,21.05
2024-02-29T10:34:36.929Z,25.50
2024-02-29T10:36:12.135Z,20.63
2024-02-29T10:37:46.889Z,23.20
2024-02-29T10:39:20.836Z,22.88
2024-02-29T10:41:01.281Z,24.85
2024-02-29T10:42:36.371Z,22.83
2024-02-29T10:44:11.202Z,26.67
2024-02-29T10:45:47.681Z,28.77
2024-02-29T10:47:24.408Z,25.83
2024-02-29T10:49:03.421Z,28.58
2024-02-29T10:50:52.282Z,22.92
2024-02-29T10:52:27.719Z,28.88
2024-02-29T10:54:08.946Z,22.98
2024-02-29T10:55:50.880Z,25.85
2024-02-29T10:57:35.976Z,28.00
2024-02-29T10:59:10.642Z,25.50
2024-02-29T11:00:45.479Z,26.25
2024-02-29T11:02:20.187Z,27.83
2024-02-29T11:03:54.335Z,29.73
2024-02-29T11:05:28.410Z,26.42
2024-02-29T11:07:04.482Z,26.48
2024-02-29T11:08:37.836Z,23.42
2024-02-29T11:10:12.455Z,29.67
2024-02-29T11:11:48.573Z,25.20
2024-02-29T11:13:22.874Z,26.58
2024-02-29T11:14:59.420Z,26.13
2024-02-29T11:16:35.826Z,27.45
2024-02-29T11:18:10.832Z,29.17
2024-02-29T11:19:51.827Z,29.63
2024-02-29T11:21:30.394Z,26.75
2024-02-29T11:23:11.115Z,24.85
2024-02-29T11:24:45.732Z,32.53
2024-02-29T11:26:20.199Z,22.65
2024-02-29T11:27:53.825Z,23.83
2024-02-29T11:29:29.012Z,22.20
2024-02-29T11:31:18.649Z,21.23
2024-02-29T11:32:54.361Z,24.30
2024-02-29T11:34:28.673Z,25.25
2024-02-29T11:36:04.533Z,23.70
2024-02-29T11:37:42.146Z,25.33
2024-02-29T11:39:16.283Z,23.80
2024-02-29T11:40:50.798Z,26.52
2024-02-29T11:42:24.058Z,29.45
2024-02-29T11:43:59.180Z,29.15
2024-02-29T11:45:32.678Z,28.75
2024-02-29T11:47:07.669Z,21.67
2024-02-29T11:48:42.794Z,23.88
2024-02-29T11:50:18.972Z,26.70
2024-02-29T11:51:53.360Z,26.08
2024-02-29T11:53:29.619Z,23.45
2024-02-29T11:55:04.561Z,20.45
2024-02-29T11:56:40.415Z,19.83
2024-02-29T11:58:14.727Z,20.13
2024-02-29T11:59:51.382Z,18.52
2024-02-29T12:01:26.874Z,21.23
2024-02-29T12:03:00.652Z,23.40
2024-02-29T12:04:37.077Z,20.50
2024-02-29T12:06:10.047Z,20.58
2024-02-29T12:07:44.355Z,22.35
2024-02-29T12:09:18.720Z,23.42
2024-02-29T12:10:53.243Z,22.33
2024-02-29T12:12:26.429Z,24.55
2024-02-29T12:14:00.500Z,20.50
2024-02-29T12:15:35.013Z,21.80
2024-02-29T12:17:09.835Z,21.00
2024-02-29T12:18:43.191Z,22.55
2024-02-29T12:20:18.724Z,20.02
2024-02-29T12:21:53.703Z,23.52
2024-02-29T12:23:32.914Z,22.85
2024-02-29T12:25:15.039Z,18.20
2024-02-29T12:26:50.273Z,16.98
2024-02-29T12:28:23.907Z,24.20
2024-02-29T12:29:58.498Z,22.35
2024-02-29T12:31:31.614Z,19.30
2024-02-29T12:33:07.197Z,20.35
2024-02-29T12:34:44.467Z,21.17
2024-02-29T12:36:20.166Z,16.48
2024-02-29T12:37:53.276Z,19.58
2024-02-29T12:39:27.205Z,25.15
2024-02-29T12:41:02.812Z,20.60
2024-02-29T12:42:37.108Z,20.23
2024-02-29T12:44:11.877Z,21.75
2024-02-29T12:45:46.206Z,19.65
2024-02-29T12:47:19.959Z,20.63
2024-02-29T12:48:54.089Z,22.33
2024-02-29T12:50:27.022Z,25.30
2024-02-29T12:52:02.535Z,25.27
2024-02-29T12:53:35.997Z,20.55
2024-02-29T12:55:10.712Z,21.38
2024-02-29T12:56:44.447Z,19.00
2024-02-29T12:58:18.676Z,25.92
2024-02-29T12:59:51.990Z,22.52
2024-02-29T13:01:26.239Z,23.65
2024-02-29T13:02:59.509Z,23.42
2024-02-29T13:04:33.539Z,22.35
2024-02-29T13:06:07.258Z,23.23
2024-02-29T13:07:43.021Z,21.77
2024-02-29T13:09:20.648Z,23.33
2024-02-29T13:10:54.693Z,21.15
2024-02-29T13:12:29.181Z,21.30
2024-02-29T13:14:02.272Z,25.33
2024-02-29T13:15:36.226Z,23.98
2024-02-29T13:17:09.331Z,23.58
2024-02-29T13:18:43.947Z,17.73
2024-02-29T13:20:17.286Z,20.83
2024-02-29T13:21:52.190Z,21.77
2024-02-29T13:23:26.522Z,19.75
2024-02-29T13:25:01.193Z,25.92
2024-02-29T13:26:35.367Z,23.30
2024-02-29T13:28:09.512Z,26.85
2024-02-29T13:29:42.381Z,24.50
2024-02-29T13:31:16.846Z,23.58
2024-02-29T13:32:49.789Z,25.60
2024-02-29T13:34:24.044Z,21.88
2024-02-29T13:35:57.121Z,26.85
2024-02-29T13:37:31.765Z,23.50
2024-02-29T13:39:08.778Z,23.75
2024-02-29T13:40:42.731Z,22.33
2024-02-29T13:42:15.636Z,20.92
2024-02-29T13:43:49.967Z,24.27
2024-02-29T13:45:23.797Z,24.38
2024-02-29T13:46:57.714Z,22.60
2024-02-29T13:48:31.553Z,25.30
2024-02-29T13:50:05.773Z,22.58
2024-02-29T13:51:39.873Z,22.52
2024-02-29T13:53:12.870Z,23.67
2024-02-29T13:54:48.473Z,20.85
2024-02-29T13:56:22.274Z,23.98
2024-02-29T13:57:56.359Z,19.17
2024-02-29T13:59:29.303Z,22.60
2024-02-29T14:01:06.655Z,17.77
2024-02-29T14:02:41.050Z,22.05
2024-02-29T14:04:16.761Z,20.88
2024-02-29T14:05:50.726Z,23.27
2024-02-29T14:07:24.596Z,21.25
2024-02-29T14:08:58.358Z,16.52
2024-02-29T14:10:33.824Z,20.15
2024-02-29T14:12:07.661Z,21.15
2024-02-29T14:13:41.848Z,18.35
2024-02-29T14:15:15.829Z,20.65
2024-02-29T14:16:49.872Z,20.98
2024-02-29T14:18:22.748Z,20.42
2024-02-29T14:19:56.768Z,21.60
2024-02-29T14:21:30.252Z,18.45
2024-02-29T14:23:04.497Z,15.85
2024-02-29T14:24:37.474Z,21.00
2024-02-29T14:26:13.138Z,19.98
2024-02-29T14:27:47.004Z,20.25
2024-02-29T14:29:21.550Z,19.25
2024-02-29T14:30:54.838Z,24.92
2024-02-29T14:32:30.017Z,20.98
2024-02-29T14:34:04.592Z,20.45
2024-02-29T14:35:38.315Z,25.20
2024-02-29T14:37:12.563Z,19.65
2024-02-29T14:38:45.524Z,20.95
2024-02-29T14:40:20.293Z,19.88
2024-02-29T14:41:54.927Z,21.63
2024-02-29T14:43:29.633Z,21.80
2024-02-29T14:45:02.540Z,21.52
2024-02-29T14:46:37.181Z,23.38
2024-02-29T14:48:10.475Z,18.90
2024-02-29T14:49:44.975Z,23.63
2024-02-29T14:51:17.846Z,21.73
2024-02-29T14:52:52.972Z,19.35
2024-02-29T14:54:26.404Z,17.85
2024-02-29T14:56:00.372Z,16.40
2024-02-29T14:57:34.849Z,20.45
2024-02-29T14:59:09.811Z,20.98
2024-02-29T15:00:43.010Z,21.98
2024-02-29T15:02:17.267Z,20.15
2024-02-29T15:03:51.736Z,20.92
2024-02-29T15:05:26.177Z,17.63
2024-02-29T15:06:59.820Z,23.92
2024-02-29T15:08:34.558Z,19.92
2024-02-29T15:10:09.013Z,20.90
2024-02-29T15:11:43.251Z,21.67
2024-02-29T15:13:17.751Z,22.13
2024-02-29T15:14:51.866Z,20.45
2024-02-29T15:16:25.273Z,24.50
2024-02-29T15:17:59.826Z,20.80
2024-02-29T15:19:35.762Z,25.23
2024-02-29T15:21:09.944Z,19.58
2024-02-29T15:22:44.479Z,22.23
2024-02-29T15:24:21.837Z,20.65
2024-02-29T15:25:56.607Z,20.58
2024-02-29T15:27:39.006Z,20.15
2024-02-29T15:29:14.242Z,18.38
2024-02-29T15:30:49.220Z,23.30
2024-02-29T15:32:23.647Z,21.52
2024-02-29T15:33:58.747Z,21.58
2024-02-29T15:35:32.037Z,25.85
2024-02-29T15:37:06.315Z,26.85
2024-02-29T15:38:42.536Z,19.65
2024-02-29T15:40:16.667Z,21.75
2024-02-29T15:41:49.798Z,20.30
2024-02-29T15:43:24.485Z,20.67
2024-02-29T15:44:58.812Z,20.63
2024-02-29T15:46:33.110Z,20.63
2024-02-29T15:48:06.831Z,23.92
2024-02-29T15:49:41.371Z,35.90
2024-02-29T15:51:14.950Z,24.15
2024-02-29T15:52:48.965Z,22.58
2024-02-29T15:54:22.510Z,16.67
2024-02-29T15:55:57.115Z,24.70
2024-02-29T15:57:30.485Z,19.73
2024-02-29T15:59:05.299Z,26.27
2024-02-29T16:00:39.745Z,18.90
2024-02-29T16:02:14.547Z,19.90
2024-02-29T16:03:53.933Z,23.52
2024-02-29T16:05:28.082Z,21.17
2024-02-29T16:07:01.472Z,21.73
2024-02-29T16:08:35.641Z,29.17
2024-02-29T16:10:09.755Z,22.10
2024-02-29T16:11:44.868Z,20.27
2024-02-29T16:13:20.017Z,20.20
2024-02-29T16:14:53.947Z,19.65
2024-02-29T16:16:29.908Z,20.30
2024-02-29T16:18:04.254Z,22.65
2024-02-29T16:19:37.411Z,25.40
2024-02-29T16:21:12.101Z,20.25
2024-02-29T16:22:45.209Z,20.90
2024-02-29T16:24:19.498Z,29.70
2024-02-29T16:25:52.925Z,21.80
2024-02-29T16:27:27.192Z,18.35
2024-02-29T16:29:00.240Z,21.15
2024-02-29T16:30:34.484Z,21.13
2024-02-29T16:32:09.195Z,24.45
2024-02-29T16:33:43.536Z,19.90
2024-02-29T16:35:17.433Z,19.52
2024-02-29T16:36:51.615Z,22.17
2024-02-29T16:38:24.665Z,19.60
2024-02-29T16:39:59.023Z,20.83
2024-02-29T16:41:32.068Z,22.55
2024-02-29T16:43:06.172Z,24.25
2024-02-29T16:44:39.332Z,24.48
2024-02-29T16:46:14.260Z,20.60
2024-02-29T16:47:48.584Z,23.20
2024-02-29T16:49:22.579Z,22.55
2024-02-29T16:50:57.503Z,26.92
2024-02-29T16:52:31.958Z,19.15
2024-02-29T16:54:04.983Z,21.48
2024-02-29T16:55:39.247Z,22.73
2024-02-29T16:57:12.348Z,21.30
2024-02-29T16:58:46.957Z,23.92
2024-02-29T17:00:23.724Z,20.50
2024-02-29T17:01:57.856Z,22.15
2024-02-29T17:03:33.408Z,18.30
2024-02-29T17:05:07.155Z,24.48
2024-02-29T17:06:41.425Z,21.52
2024-02-29T17:08:15.409Z,23.65
2024-02-29T17:09:48.631Z,22.27
2024-02-29T17:11:23.114Z,23.13
2024-02-29T17:12:59.573Z,22.95
2024-02-29T17:14:32.742Z,21.85
2024-02-29T17:16:07.253Z,20.58
2024-02-29T17:17:40.669Z,27.88
2024-02-29T17:19:16.247Z,21.88
2024-02-29T17:20:49.179Z,20.85
2024-02-29T17:22:24.276Z,20.65
2024-02-29T17:23:57.789Z,23.05
2024-02-29T17:25:31.787Z,26.90
2024-02-29T17:27:05.061Z,25.15
2024-02-29T17:28:38.977Z,21.67
2024-02-29T17:30:13.570Z,21.95
2024-02-29T17:31:47.908Z,23.00
2024-02-29T17:33:20.924Z,23.20
2024-02-29T17:34:56.531Z,21.38
2024-02-29T17:36:29.893Z,21.85
2024-02-29T17:38:04.214Z,26.63
2024-02-29T17:39:37.307Z,22.90
2024-02-29T17:41:12.693Z,22.55
2024-02-29T17:42:46.107Z,26.85
2024-02-29T17:44:20.637Z,24.83
2024-02-29T17:45:53.796Z,25.05
2024-02-29T17:47:27.750Z,21.45
2024-02-29T17:49:01.569Z,24.70
2024-02-29T17:50:37.060Z,26.60
2024-02-29T17:52:10.087Z,24.45
2024-02-29T17:53:44.650Z,21.85
2024-02-29T17:55:19.027Z,20.10
2024-02-29T17:56:53.732Z,23.65
2024-02-29T17:58:26.692Z,30.25
2024-02-29T18:00:00.670Z,32.42
2024-02-29T18:01:34.884Z,25.20
2024-02-29T18:03:08.880Z,27.77
2024-02-29T18:04:41.968Z,26.85
2024-02-29T18:06:17.311Z,29.05
2024-02-29T18:07:55.721Z,30.58
2024-02-29T18:09:34.451Z,24.35
2024-02-29T18:11:07.481Z,27.90
2024-02-29T18:12:41.643Z,28.60
2024-02-29T18:14:16.909Z,28.63
2024-02-29T18:15:51.345Z,23.45
2024-02-29T18:17:24.413Z,29.20
2024-02-29T18:18:58.424Z,24.17
2024-02-29T18:20:31.945Z,29.05
2024-02-29T18:22:07.379Z,28.08
2024-02-29T18:23:40.349Z,25.35
2024-02-29T18:25:14.648Z,23.92
2024-02-29T18:26:49.236Z,24.90
2024-02-29T18:28:23.459Z,27.85
2024-02-29T18:29:56.629Z,24.67
2024-02-29T18:31:30.605Z,28.60
2024-02-29T18:33:04.558Z,26.25
2024-02-29T18:34:38.793Z,28.85
2024-02-29T18:36:11.869Z,28.75
2024-02-29T18:37:47.590Z,26.13
2024-02-29T18:39:21.019Z,26.35
2024-02-29T18:40:55.047Z,24.67
2024-02-29T18:42:29.631Z,28.98
2024-02-29T18:44:03.927Z,25.05
2024-02-29T18:45:38.281Z,25.88
2024-02-29T18:47:11.468Z,28.40
2024-02-29T18:48:45.623Z,26.73
2024-02-29T18:50:19.017Z,29.75
2024-02-29T18:51:53.608Z,24.77
2024-02-29T18:53:27.971Z,27.88
2024-02-29T18:55:02.639Z,25.60
2024-02-29T18:56:35.676Z,26.70
2024-02-29T18:58:10.104Z,23.40
2024-02-29T18:59:43.174Z,28.08
2024-02-29T19:01:18.117Z,28.27
2024-02-29T19:02:51.630Z,27.17
2024-02-29T19:04:26.252Z,27.50
2024-02-29T19:06:00.099Z,28.23
2024-02-29T19:07:34.524Z,27.48
2024-02-29T19:09:10.153Z,25.42
2024-02-29T19:10:43.733Z,24.85
2024-02-29T19:12:17.687Z,29.50
2024-02-29T19:13:51.749Z,30.20
2024-02-29T19:15:25.761Z,25.77
2024-02-29T19:16:59.246Z,28.45
2024-02-29T19:18:33.157Z,28.85
2024-02-29T19:20:11.479Z,26.08
2024-02-29T19:21:45.973Z,32.80
2024-02-29T19:23:19.216Z,28.02
2024-02-29T19:24:54.505Z,35.45
2024-02-29T19:26:28.072Z,38.95
2024-02-29T19:28:01.968Z,32.63
2024-02-29T19:29:36.943Z,28.52
2024-02-29T19:31:11.548Z,33.70
2024-02-29T19:32:44.564Z,34.88
2024-02-29T19:34:18.581Z,25.30
2024-02-29T19:35:52.685Z,31.85
2024-02-29T19:37:27.742Z,30.05
2024-02-29T19:39:00.767Z,29.55
2024-02-29T19:40:36.187Z,27.75
2024-02-29T19:42:10.088Z,35.75
2024-02-29T19:43:44.274Z,33.90
2024-02-29T19:45:17.766Z,31.70
2024-02-29T19:46:53.049Z,26.75
2024-02-29T19:48:26.402Z,28.48
2024-02-29T19:50:01.271Z,28.20
2024-02-29T19:51:40.228Z,28.67
2024-02-29T19:53:14.227Z,26.45
2024-02-29T19:54:48.755Z,32.42
2024-02-29T19:56:24.420Z,38.67
2024-02-29T19:57:57.522Z,33.17
2024-02-29T19:59:31.406Z,29.27
2024-02-29T20:01:05.134Z,31.23
2024-02-29T20:02:39.084Z,31.70
2024-02-29T20:04:13.228Z,33.58
2024-02-29T20:05:46.208Z,35.08
2024-02-29T20:07:21.300Z,54.53
2024-02-29T20:08:54.383Z,47.83
2024-02-29T20:10:28.564Z,50.42
2024-02-29T20:12:03.094Z,51.85
2024-02-29T20:13:37.516Z,47.95
2024-02-29T20:15:12.453Z,51.25
2024-02-29T20:16:47.590Z,51.47
2024-02-29T20:18:24.396Z,52.45